x

Cape Suckling - 35 Nm Se Of Kayak Is, Ak (46082) Wave Buoy

2:50pm - Thu 26th Feb 2015 All times are AKST. -9 hours from GMT.

  • Sig Wave height 4.6ft
  • Peak Period 11s
  • Average Period 7s
  • Wind
    2mph, 4mph gusts
  • Sea Temp 45°f
  • Air Temp 42°f
  • Sea Pressure 1030.4mb
  • Cape Suckling - 35 Nm Se Of Kayak Is, Ak
  • Cape Suckling - 35 Nm Se Of Kayak Is, Ak

More Historic Weather Station data

Upgrade to MSW Pro to gain access to the past 30 days of data for over 8000 Wavebouys and Weather Stations around the globe.

Join Pro

Comparision Forecast

View Surf forecast
   
Thu 02/26 2:50pm 4.5ft 11s 7s 2 4 mph 1030.4mb 45f 42f
1:50pm 4.5ft 11s 7s 4 7 mph 1030.5mb 45f 42f
12:50pm 4.5ft 11s 7s 7 9 mph 1030.5mb 45f 41f
11:50am 5ft 11s 7s 2 4 mph 1030mb 45f 41f
10:50am 5.5ft 11s 7s 2 4 mph 1029.7mb 45f 41f
9:50am 6ft 11s 7s 4 7 mph 1029.1mb 45f 41f
8:50am 6ft 11s 7s 4 7 mph 1028.3mb 44f 40f
7:50am 5.5ft 11s 7s 7 9 mph 1027.8mb 44f 39f
6:50am 5ft 11s 6s 11 13 mph 1027.6mb 44f 39f
5:50am 6ft 11s 7s 16 18 mph 1027.1mb 44f 39f
4:50am 6.5ft 11s 8s 13 16 mph 1026.9mb 44f 40f
3:50am 7ft 11s 8s 7 9 mph 1026.6mb 44f 40f
2:50am 6.5ft 11s 8s 4
mph
1026.9mb 44f 41f
1:50am 7ft 10s 8s 4 7 mph 1026.8mb 44f 41f
12:50am 6.5ft 11s 7s 7 9 mph 1026.8mb 44f 41f
Wed 02/25 11:50pm 7ft 10s 8s 11 13 mph 1026.7mb 44f 41f
10:50pm 6.5ft 10s 7s 9 11 mph 1026.4mb 44f 40f
9:50pm 6ft 10s 7s 9 11 mph 1026.3mb 44f 41f
8:50pm 6ft 11s 7s 9 11 mph 1026.2mb 45f 41f
7:50pm 6ft 11s 7s 4 7 mph 1026mb 45f 42f
6:50pm 6.5ft 11s 7s 4 7 mph 1025.9mb 45f 42f
5:50pm 7ft 10s 7s 7 11 mph 1025.5mb 45f 42f
4:50pm 7ft 11s 7s 9 11 mph 1025.4mb 45f 42f
3:50pm 8ft 10s 8s 11 16 mph 1025.3mb 45f 42f
2:50pm 9ft 10s 8s 13 16 mph 1025.5mb 45f 42f
1:50pm 9ft 10s 7s 13 16 mph 1025.6mb 45f 42f
12:50pm 8ft 10s 8s 13 16 mph 1025.7mb 45f 42f
11:50am 7ft 8s 7s 11 16 mph 1025.7mb 45f 42f
10:50am 5.5ft 10s 6s 11 13 mph 1025.6mb 45f 42f
9:50am 5ft 9s 6s 11
mph
1025.6mb 45f 42f
8:50am 4.5ft 9s 6s 9 11 mph 1025.2mb 45f 42f
7:50am 4.5ft 10s 6s 9 11 mph 1025mb 45f 42f
6:50am 4.5ft 9s 6s 11 13 mph 1025mb 45f 42f
5:50am 4.5ft 9s 6s 11 13 mph 1025mb 45f 42f
4:50am 4.5ft 9s 6s 7 9 mph 1025.3mb 45f 42f
3:50am 4ft 9s 6s 11 13 mph 1025.7mb 45f 42f
2:50am 3.5ft 8s 7s 11 13 mph 1026.1mb 45f 42f
1:50am 4ft 9s 7s 11 20 mph 1026.5mb 45f 42f
12:50am 4ft 9s 7s 7 9 mph 1027mb 45f 42f
Tue 02/24 11:50pm 4.5ft 8s 7s 7 9 mph 1027.1mb 45f 42f
10:50pm 4.5ft 9s 7s 9
mph
1027.3mb 45f 42f
9:50pm 4.5ft 8s 7s 7
mph
1027.6mb 45f 42f
8:50pm 4.5ft 9s 7s 7 9 mph 1027.4mb 45f 42f
7:50pm 5ft 9s 7s 7 11 mph 1027.5mb 45f 42f
6:50pm 4.5ft 9s 7s 4 7 mph 1027.7mb 45f 42f
5:50pm 5ft 10s 7s 7
mph
1027.9mb 45f 42f
4:50pm 4.5ft 9s 7s 7 9 mph 1027.9mb 45f 42f
3:50pm 5ft 8s 7s 2 4 mph 1028.4mb 45f 42f
2:50pm 4.5ft 9s 7s 2
mph
1029.2mb 45f 42f
1:50pm 5ft 9s 7s 4 7 mph 1029.7mb 45f 42f
12:50pm 5ft 9s 7s 9 11 mph 1029.9mb 45f 42f
11:50am 6ft 9s 7s 4 7 mph 1029.6mb 45f 43f
10:50am 5.5ft 8s 6s 2 4 mph 1029.3mb 45f 43f
9:50am 5ft 9s 7s 7 9 mph 1029.2mb 45f 42f
8:50am 6ft 9s 7s 7 9 mph 1029.1mb 45f 42f
7:50am 5.5ft 9s 7s  -  2 mph 1029.1mb 45f 42f
6:50am 6ft 9s 7s 2 4 mph 1028.7mb 45f 42f
5:50am 6ft 8s 7s 7
mph
1028.5mb 45f 43f
4:50am 6.5ft 9s 7s 4
mph
1028.4mb 45f 43f
3:50am 6ft 8s 6s 4 7 mph 1028.1mb 44f 43f
2:50am 6.5ft 9s 6s 9 11 mph 1028mb 44f 43f
1:50am 6ft 9s 6s 11 13 mph 1027.4mb 44f 43f
12:50am 6.5ft 8s 6s 9 11 mph 1027.1mb 45f 43f
Mon 02/23 11:50pm 5.5ft 9s 6s 13 18 mph 1026.6mb 45f 43f
10:50pm 5.5ft 9s 6s 13 16 mph 1026.1mb 45f 44f
9:50pm 6.5ft 8s 7s 11 13 mph 1025.9mb 45f 44f
8:50pm 6ft 10s 6s 11 13 mph 1025.4mb 45f 44f
7:50pm 6.5ft 11s 6s 9 11 mph 1024.8mb 45f 44f
6:50pm 7ft 9s 6s 7 9 mph 1024.2mb 45f 42f
5:50pm 7.5ft 8s 6s 13 16 mph 1023.6mb 45f 43f
4:50pm 7.5ft 9s 6s 13 16 mph 1023.1mb 45f 43f
3:50pm 8ft 10s 7s 11 13 mph 1022.8mb 45f 44f
2:50pm 8ft 8s 6s 13 18 mph 1022.9mb 45f 44f
1:50pm 8ft 10s 6s 13 16 mph 1022.9mb 45f 44f
12:50pm 8ft 10s 6s 13 16 mph 1022.7mb 45f 44f
11:50am 9ft 8s 6s 13 16 mph 1022.4mb 45f 44f
10:50am 8.5ft 8s 6s 13 18 mph 1021.9mb 45f 43f
9:50am 8.5ft 8s 6s 16 20 mph 1021.1mb 45f 43f
8:50am 9ft 8s 6s 18 22 mph 1020.4mb 45f 44f
7:50am 9ft 8s 6s 18 22 mph 1019.6mb 45f 43f
6:50am 10ft 8s 6s 20 25 mph 1018.8mb 45f 44f
5:50am 10.5ft 8s 6s 20 25 mph 1018.2mb 45f 43f
4:50am 10ft 8s 6s 13 18 mph 1017.6mb 45f 43f
3:50am 10ft 8s 6s 18 22 mph 1016.7mb 45f 44f
2:50am 11ft 8s 6s 22 29 mph 1015.4mb 45f 44f
1:50am 11ft 8s 6s 20 25 mph 1014.5mb 45f 44f
12:50am 12.5ft 7s 6s 18 25 mph 1012.7mb 45f 44f